Time;durP1;ratioP1;P1;durP2;ratioP2;P2;SDS_P1;SDS_P2;PMS_P1;PMS_P2;Temp;Humidity;BMP_temperature;BMP_pressure;BME280_temperature;BME280_humidity;BME280_pressure;Samples;Min_cycle;Max_cycle;Signal;HPM_P1;HPM_P2
2024/03/09 00:00:40;;;;;;;4.50;1.80;;;28.80;99.90;;;;;;5059333;28;20024;-70
2024/03/09 00:03:11;;;;;;;4.13;2.40;;;28.90;99.90;;;;;;5059430;28;20430;-62
2024/03/09 00:05:39;;;;;;;3.67;1.65;;;29.30;99.90;;;;;;5061028;28;20036;-75
2024/03/09 00:08:07;;;;;;;4.78;1.90;;;29.60;99.90;;;;;;5057593;28;20539;-75
2024/03/09 00:10:34;;;;;;;5.25;1.60;;;29.80;99.90;;;;;;5058871;28;20024;-63
2024/03/09 00:13:05;;;;;;;4.72;2.70;;;29.80;99.90;;;;;;5059236;28;20024;-62
2024/03/09 00:15:33;;;;;;;6.93;2.38;;;30.00;99.90;;;;;;5059761;28;20067;-62
2024/03/09 00:18:00;;;;;;;4.75;2.78;;;29.90;99.90;;;;;;5061001;28;20027;-61
2024/03/09 00:20:34;;;;;;;5.60;3.10;;;30.00;99.90;;;;;;5059978;28;20024;-61
2024/03/09 00:23:03;;;;;;;4.45;2.80;;;29.90;99.90;;;;;;5059621;28;20032;-74
2024/03/09 00:25:30;;;;;;;8.80;3.00;;;30.00;99.90;;;;;;5063149;28;20036;-69
2024/03/09 00:27:58;;;;;;;4.47;2.65;;;30.00;99.90;;;;;;5063096;28;20031;-61
2024/03/09 00:30:29;;;;;;;4.90;3.85;;;29.70;99.90;;;;;;5060497;28;20029;-71
2024/03/09 00:33:00;;;;;;;5.97;2.72;;;30.00;99.90;;;;;;5059737;28;20036;-73
2024/03/09 00:35:31;;;;;;;5.15;3.10;;;30.40;99.90;;;;;;5061400;28;21339;-61
2024/03/09 00:37:59;;;;;;;5.30;3.13;;;30.10;99.90;;;;;;5060549;28;20029;-60
2024/03/09 00:40:29;;;;;;;4.25;3.15;;;29.90;99.90;;;;;;5057246;28;20592;-72
2024/03/09 00:42:59;;;;;;;7.53;3.53;;;30.00;99.90;;;;;;5061253;28;20498;-72
2024/03/09 00:45:27;;;;;;;5.38;3.63;;;29.90;99.90;;;;;;5060282;28;20090;-71
2024/03/09 00:47:54;;;;;;;4.72;3.10;;;29.70;99.90;;;;;;5060994;28;20034;-62
2024/03/09 00:50:26;;;;;;;4.80;2.80;;;30.20;99.90;;;;;;5059096;28;20039;-72
2024/03/09 00:52:53;;;;;;;3.28;2.92;;;30.20;99.90;;;;;;5059454;28;20495;-61
2024/03/09 00:55:22;;;;;;;3.33;2.45;;;30.10;99.90;;;;;;5060423;28;20036;-61
2024/03/09 00:57:53;;;;;;;6.80;3.10;;;30.10;99.90;;;;;;5060660;28;20105;-72
2024/03/09 01:00:23;;;;;;;7.05;2.97;;;30.40;99.90;;;;;;5058924;28;20415;-61
2024/03/09 01:02:50;;;;;;;6.28;3.20;;;30.50;99.90;;;;;;5055640;28;20029;-62
2024/03/09 01:05:22;;;;;;;4.90;2.90;;;30.80;99.90;;;;;;5058184;28;20127;-75
2024/03/09 01:07:52;;;;;;;5.32;2.67;;;31.20;99.90;;;;;;5058850;28;20032;-65
2024/03/09 01:10:19;;;;;;;6.97;2.97;;;31.70;99.90;;;;;;5058843;28;20139;-63
2024/03/09 01:12:47;;;;;;;5.55;3.05;;;31.50;99.90;;;;;;5060397;28;20021;-63
2024/03/09 01:15:14;;;;;;;4.78;2.45;;;31.60;99.90;;;;;;5058388;28;20755;-73
2024/03/09 01:17:41;;;;;;;5.10;2.53;;;31.70;99.90;;;;;;5058830;28;20530;-63
2024/03/09 01:20:09;;;;;;;5.05;2.10;;;31.30;99.90;;;;;;5057257;28;20052;-64
2024/03/09 01:22:37;;;;;;;4.95;2.05;;;31.40;99.90;;;;;;5057912;28;20074;-74
2024/03/09 01:25:07;;;;;;;4.03;2.60;;;32.00;99.90;;;;;;5059035;28;20024;-63
2024/03/09 01:27:38;;;;;;;4.45;2.92;;;32.50;99.90;;;;;;5059376;28;20032;-64
2024/03/09 01:30:05;;;;;;;4.43;2.88;;;32.80;99.90;;;;;;5057995;28;20032;-61
2024/03/09 01:32:32;;;;;;;5.20;2.40;;;32.70;99.40;;;;;;5056055;28;20129;-62
2024/03/09 01:34:59;;;;;;;3.70;2.42;;;33.00;99.70;;;;;;5056209;28;20037;-65
2024/03/09 01:37:26;;;;;;;4.85;3.10;;;33.20;99.40;;;;;;5058609;28;20020;-73
2024/03/09 01:39:53;;;;;;;8.25;2.53;;;33.10;99.50;;;;;;5062243;28;20039;-63
2024/03/09 01:42:21;;;;;;;4.72;2.00;;;32.70;98.90;;;;;;5061275;28;20499;-73
2024/03/09 01:44:49;;;;;;;2.42;1.55;;;32.40;98.40;;;;;;5062623;28;20394;-64
2024/03/09 01:47:24;;;;;;;4.50;1.70;;;32.40;98.20;;;;;;5062209;28;20025;-70
2024/03/09 01:49:56;;;;;;;2.47;1.70;;;32.30;98.60;;;;;;5056826;28;20138;-61
2024/03/09 01:52:31;;;;;;;3.97;2.00;;;32.20;98.50;;;;;;5058067;28;20067;-61
2024/03/09 01:55:00;;;;;;;3.45;2.15;;;31.70;99.10;;;;;;5061005;28;20031;-61
2024/03/09 01:57:27;;;;;;;2.60;1.90;;;31.20;99.90;;;;;;5057137;28;20405;-62
2024/03/09 01:59:55;;;;;;;3.90;2.28;;;31.30;99.90;;;;;;5056869;28;20490;-62
2024/03/09 02:02:23;;;;;;;6.70;1.73;;;31.40;98.80;;;;;;5061212;28;20338;-62
2024/03/09 02:04:51;;;;;;;3.63;1.75;;;31.40;99.10;;;;;;5057598;28;20085;-62
2024/03/09 02:07:18;;;;;;;5.00;3.00;;;31.40;99.50;;;;;;5059680;28;20441;-72
2024/03/09 02:09:46;;;;;;;5.03;2.10;;;31.50;99.80;;;;;;5058277;28;20454;-62
2024/03/09 02:12:16;;;;;;;2.75;1.70;;;31.70;99.80;;;;;;5042814;28;20434;-72
2024/03/09 02:14:44;;;;;;;4.28;2.40;;;32.50;98.70;;;;;;5060713;28;20021;-73
2024/03/09 02:17:12;;;;;;;3.03;1.73;;;32.90;99.20;;;;;;5063025;28;20039;-61
2024/03/09 02:19:40;;;;;;;4.30;1.90;;;32.90;99.10;;;;;;5058526;28;20132;-62
2024/03/09 02:22:13;;;;;;;4.43;1.77;;;32.90;98.20;;;;;;5060527;28;20036;-71
2024/03/09 02:24:42;;;;;;;3.10;1.35;;;33.30;98.30;;;;;;5068055;28;20033;-71
2024/03/09 02:27:10;;;;;;;3.17;1.60;;;33.80;97.90;;;;;;5065313;28;20059;-72
2024/03/09 02:29:37;;;;;;;2.38;1.33;;;34.30;97.40;;;;;;5064794;28;20029;-62
2024/03/09 02:32:04;;;;;;;3.70;1.50;;;34.50;97.10;;;;;;5064754;28;20042;-72
2024/03/09 02:34:31;;;;;;;3.47;1.98;;;34.80;97.00;;;;;;5064209;28;20041;-72
2024/03/09 02:36:58;;;;;;;5.22;1.90;;;35.10;96.60;;;;;;5064922;28;20126;-73
2024/03/09 02:39:27;;;;;;;2.92;1.33;;;35.00;96.40;;;;;;5063369;28;20028;-72
2024/03/09 02:41:58;;;;;;;7.20;1.58;;;35.60;96.50;;;;;;5057389;28;20469;-72
2024/03/09 02:44:26;;;;;;;1.90;1.30;;;35.90;96.30;;;;;;5065354;28;20032;-73
2024/03/09 02:46:53;;;;;;;2.75;1.30;;;35.20;96.00;;;;;;5061069;28;20116;-72
2024/03/09 02:49:20;;;;;;;4.20;1.45;;;34.30;95.60;;;;;;5064277;28;20024;-71
2024/03/09 02:51:48;;;;;;;2.15;1.05;;;33.80;96.20;;;;;;5064709;28;20337;-71
2024/03/09 02:54:15;;;;;;;2.92;1.20;;;34.10;96.20;;;;;;5061872;28;20319;-71
2024/03/09 02:56:42;;;;;;;4.65;1.30;;;34.60;95.70;;;;;;5061892;28;20394;-71
2024/03/09 02:59:09;;;;;;;1.92;1.23;;;35.20;95.70;;;;;;5064485;28;20051;-71
2024/03/09 03:01:36;;;;;;;3.08;1.00;;;35.40;95.40;;;;;;5061207;28;20020;-61
2024/03/09 03:04:03;;;;;;;3.03;1.08;;;35.60;95.20;;;;;;5065071;28;20016;-71
2024/03/09 03:06:32;;;;;;;3.17;1.40;;;35.30;95.20;;;;;;5062579;28;20024;-72
2024/03/09 03:09:15;;;;;;;2.47;0.93;;;35.40;95.20;;;;;;5072777;28;20024;-73
2024/03/09 03:11:43;;;;;;;4.10;1.13;;;34.60;94.70;;;;;;5073562;28;20099;-62
2024/03/09 03:14:10;;;;;;;4.63;1.50;;;34.00;96.00;;;;;;5073547;28;20072;-61
2024/03/09 03:16:37;;;;;;;2.65;1.00;;;34.50;95.20;;;;;;5064660;28;20082;-60
2024/03/09 03:19:06;;;;;;;3.10;1.10;;;35.10;95.20;;;;;;5066502;28;20024;-71
2024/03/09 03:21:34;;;;;;;2.90;1.25;;;35.10;94.10;;;;;;5056373;28;20024;-60
2024/03/09 03:24:04;;;;;;;1.92;1.05;;;34.30;94.20;;;;;;5063773;28;20048;-71
2024/03/09 03:26:31;;;;;;;3.10;1.30;;;33.50;94.70;;;;;;5061061;28;20431;-61
2024/03/09 03:29:01;;;;;;;2.05;0.77;;;33.50;95.20;;;;;;5060725;28;20031;-61
2024/03/09 03:31:29;;;;;;;5.32;1.73;;;33.80;95.10;;;;;;5060865;28;20041;-62
2024/03/09 03:33:56;;;;;;;5.75;1.38;;;34.20;94.80;;;;;;5045751;28;20045;-62
2024/03/09 03:36:25;;;;;;;4.65;1.27;;;34.30;94.90;;;;;;5062542;28;20025;-74
2024/03/09 03:38:52;;;;;;;3.72;1.20;;;34.80;95.30;;;;;;5063057;28;20073;-70
2024/03/09 03:41:23;;;;;;;2.97;1.10;;;34.90;93.80;;;;;;5060406;28;20036;-61
2024/03/09 03:43:50;;;;;;;2.90;1.35;;;35.20;94.20;;;;;;5059787;28;20066;-72
2024/03/09 03:46:17;;;;;;;2.75;1.20;;;35.50;94.60;;;;;;5058162;28;20568;-73
2024/03/09 03:48:47;;;;;;;3.65;1.55;;;35.70;94.00;;;;;;5059444;28;20075;-62
2024/03/09 03:51:15;;;;;;;2.50;1.30;;;35.60;93.70;;;;;;5060823;28;20032;-72
2024/03/09 03:53:43;;;;;;;4.35;1.45;;;35.80;94.30;;;;;;5044082;28;20073;-62
2024/03/09 03:56:11;;;;;;;4.03;1.48;;;35.90;93.60;;;;;;5061798;28;20256;-71
2024/03/09 03:58:39;;;;;;;3.67;1.45;;;36.10;93.10;;;;;;5061840;28;20017;-71
2024/03/09 04:01:06;;;;;;;3.92;1.48;;;36.40;93.30;;;;;;5059244;28;20036;-71
2024/03/09 04:03:37;;;;;;;5.95;1.70;;;35.90;93.10;;;;;;5058272;28;20028;-63
2024/03/09 04:06:04;;;;;;;2.58;1.10;;;34.90;92.70;;;;;;5060712;28;20584;-64
2024/03/09 04:08:32;;;;;;;3.83;1.75;;;33.90;93.80;;;;;;5059628;28;20036;-71
2024/03/09 04:10:59;;;;;;;3.70;1.13;;;33.80;93.60;;;;;;5056523;28;20033;-71
2024/03/09 04:13:27;;;;;;;3.30;1.60;;;34.50;94.30;;;;;;5043020;28;20020;-72
2024/03/09 04:15:56;;;;;;;4.75;1.40;;;35.00;93.30;;;;;;5059475;28;20021;-73
2024/03/09 04:18:26;;;;;;;4.32;1.52;;;35.40;92.90;;;;;;5059744;28;20062;-71
2024/03/09 04:20:54;;;;;;;3.20;1.20;;;35.60;93.30;;;;;;5053934;28;20028;-72
2024/03/09 04:23:22;;;;;;;4.10;1.67;;;36.10;92.40;;;;;;5063513;28;20028;-62
2024/03/09 04:25:53;;;;;;;4.63;1.50;;;35.90;92.60;;;;;;5064162;28;20048;-71
2024/03/09 04:28:27;;;;;;;2.90;1.20;;;35.00;92.90;;;;;;5061460;28;20074;-71
2024/03/09 04:30:56;;;;;;;4.70;1.60;;;34.30;92.90;;;;;;5061677;28;20028;-72
2024/03/09 04:33:24;;;;;;;3.45;1.40;;;34.90;92.40;;;;;;5061778;28;20100;-62
2024/03/09 04:35:52;;;;;;;4.80;1.58;;;35.10;93.30;;;;;;5048278;28;20040;-71
2024/03/09 04:38:19;;;;;;;3.70;1.40;;;35.60;92.80;;;;;;5068002;28;20340;-72
2024/03/09 04:40:48;;;;;;;3.30;1.23;;;36.00;91.30;;;;;;5070114;28;20034;-71
2024/03/09 04:43:16;;;;;;;2.90;1.20;;;36.10;92.50;;;;;;5068926;28;20060;-74
2024/03/09 04:45:43;;;;;;;3.75;1.50;;;36.30;92.30;;;;;;5066367;28;20625;-62
2024/03/09 04:48:11;;;;;;;3.70;1.40;;;35.60;91.80;;;;;;5060392;28;20072;-63
2024/03/09 04:50:40;;;;;;;3.35;1.20;;;35.90;91.80;;;;;;5061588;28;20035;-73
2024/03/09 04:53:08;;;;;;;2.42;1.38;;;36.40;91.20;;;;;;5059367;28;20024;-74
2024/03/09 04:55:36;;;;;;;2.20;1.33;;;36.50;90.50;;;;;;5056428;28;20556;-63
2024/03/09 04:58:13;;;;;;;2.80;1.48;;;36.40;91.30;;;;;;5056579;28;20078;-73
2024/03/09 05:00:41;;;;;;;2.88;1.40;;;36.40;90.80;;;;;;5054056;28;20028;-73
2024/03/09 05:03:08;;;;;;;8.45;1.92;;;36.50;90.90;;;;;;5061357;28;20299;-72
2024/03/09 05:05:35;;;;;;;3.85;1.95;;;36.60;90.80;;;;;;5061646;28;20025;-74
2024/03/09 05:08:02;;;;;;;2.30;1.40;;;36.30;90.90;;;;;;5024993;28;20047;-74
2024/03/09 05:10:30;;;;;;;3.05;1.70;;;36.60;90.70;;;;;;5056238;28;20040;-75
2024/03/09 05:12:57;;;;;;;3.53;1.83;;;36.60;91.00;;;;;;5055348;28;20016;-62
2024/03/09 05:15:29;;;;;;;3.45;1.60;;;36.80;90.50;;;;;;5054294;28;20024;-72
2024/03/09 05:17:58;;;;;;;2.08;1.50;;;36.60;90.00;;;;;;5057643;28;20238;-73
2024/03/09 05:20:27;;;;;;;3.55;1.20;;;36.80;90.40;;;;;;5052967;28;20035;-63
2024/03/09 05:23:07;;;;;;;3.75;1.63;;;37.10;90.20;;;;;;5053505;28;20082;-63
2024/03/09 05:25:34;;;;;;;2.95;1.65;;;36.90;89.90;;;;;;5056437;28;20037;-72
2024/03/09 05:28:01;;;;;;;5.30;2.05;;;37.10;90.00;;;;;;5056434;28;20046;-72
2024/03/09 05:30:30;;;;;;;2.97;1.40;;;36.80;87.90;;;;;;5054321;28;20427;-63
2024/03/09 05:32:59;;;;;;;2.55;1.33;;;37.00;88.70;;;;;;5056802;28;20013;-63
2024/03/09 05:35:28;;;;;;;3.42;1.20;;;36.90;89.40;;;;;;5054113;28;20082;-72
2024/03/09 05:38:05;;;;;;;3.95;1.40;;;37.00;89.00;;;;;;5056344;28;20031;-72
2024/03/09 05:40:33;;;;;;;1.98;1.02;;;36.90;89.70;;;;;;5060958;28;20111;-72
2024/03/09 05:43:01;;;;;;;2.97;2.20;;;37.10;89.40;;;;;;5060453;28;20083;-71
2024/03/09 05:45:28;;;;;;;3.80;1.20;;;37.10;90.50;;;;;;5063403;28;20475;-63
2024/03/09 05:47:56;;;;;;;5.45;1.55;;;37.40;89.60;;;;;;5064953;28;20036;-74
2024/03/09 05:50:30;;;;;;;4.82;1.35;;;36.70;89.40;;;;;;5059493;28;20379;-63
2024/03/09 05:53:02;;;;;;;3.45;1.17;;;35.90;90.60;;;;;;5056517;28;20039;-71
2024/03/09 05:55:29;;;;;;;;;;;35.50;90.70;;;;;;5040043;28;20028;-63
2024/03/09 05:57:57;;;;;;;4.40;1.23;;;35.60;90.50;;;;;;5057664;28;19920;-62
2024/03/09 06:00:27;;;;;;;4.13;1.17;;;35.80;90.60;;;;;;5060376;28;20064;-71
2024/03/09 06:02:57;;;;;;;2.95;0.93;;;36.20;90.10;;;;;;5059604;28;20032;-73
2024/03/09 06:05:28;;;;;;;2.33;1.38;;;36.20;90.50;;;;;;5059972;28;20031;-63
2024/03/09 06:07:55;;;;;;;5.13;1.37;;;36.20;90.40;;;;;;5058028;28;20037;-71
2024/03/09 06:10:24;;;;;;;4.13;1.73;;;35.80;90.40;;;;;;5055757;28;20365;-68
2024/03/09 06:12:55;;;;;;;4.70;1.50;;;35.70;91.80;;;;;;5055204;28;20400;-70
2024/03/09 06:15:23;;;;;;;4.10;2.47;;;35.70;91.20;;;;;;5058919;28;20031;-62
2024/03/09 06:17:53;;;;;;;4.50;1.27;;;35.90;91.70;;;;;;5059329;28;20086;-68
2024/03/09 06:20:21;;;;;;;2.35;1.42;;;36.10;90.30;;;;;;5061042;28;20174;-68
2024/03/09 06:22:48;;;;;;;2.10;1.27;;;36.50;90.30;;;;;;5059354;28;20414;-64
2024/03/09 06:25:22;;;;;;;2.80;1.48;;;36.80;88.50;;;;;;5060749;28;20083;-62
2024/03/09 06:27:57;;;;;;;2.38;1.55;;;37.10;88.80;;;;;;5058621;28;20113;-63
2024/03/09 06:30:24;;;;;;;3.95;1.60;;;37.20;90.10;;;;;;5053796;28;20330;-63
2024/03/09 06:32:53;;;;;;;4.07;1.65;;;37.30;89.90;;;;;;5056739;28;20623;-69
2024/03/09 06:35:23;;;;;;;3.05;1.83;;;37.10;90.10;;;;;;5056838;28;20036;-69
2024/03/09 06:38:10;;;;;;;3.83;1.20;;;37.10;90.10;;;;;;5056790;28;20074;-66
2024/03/09 06:40:42;;;;;;;4.93;1.83;;;37.10;90.40;;;;;;5060807;28;20023;-64
2024/03/09 06:43:11;;;;;;;3.47;1.80;;;37.10;90.20;;;;;;5056597;28;20107;-71
2024/03/09 06:45:40;;;;;;;2.47;1.27;;;37.30;90.50;;;;;;5056444;28;20056;-64
2024/03/09 06:48:08;;;;;;;2.80;1.10;;;37.60;90.30;;;;;;5055935;28;20063;-61
2024/03/09 06:50:36;;;;;;;1.85;0.90;;;37.50;90.10;;;;;;5058192;28;20044;-70
2024/03/09 06:53:04;;;;;;;3.25;1.40;;;37.40;90.40;;;;;;5056603;28;20025;-64
2024/03/09 06:55:31;;;;;;;4.18;1.20;;;37.60;89.20;;;;;;5059667;28;20029;-65
2024/03/09 06:58:03;;;;;;;3.53;1.20;;;37.40;88.40;;;;;;5061834;28;20103;-71
2024/03/09 07:00:31;;;;;;;3.47;1.20;;;37.10;89.20;;;;;;5054799;28;20029;-75
2024/03/09 07:02:59;;;;;;;3.08;1.17;;;37.20;88.90;;;;;;5056293;28;20025;-73
2024/03/09 07:05:30;;;;;;;3.42;1.48;;;37.60;89.10;;;;;;5059289;28;20036;-74
2024/03/09 07:08:01;;;;;;;4.63;1.08;;;37.60;88.50;;;;;;5060100;28;20193;-71
2024/03/09 07:10:29;;;;;;;4.47;1.35;;;37.50;89.50;;;;;;5056385;28;20584;-70
2024/03/09 07:12:58;;;;;;;3.42;1.52;;;37.60;88.30;;;;;;5062988;28;20671;-73
2024/03/09 07:15:28;;;;;;;3.97;2.00;;;37.50;88.30;;;;;;5059904;28;20266;-66
2024/03/09 07:17:55;;;;;;;3.83;2.40;;;36.90;89.40;;;;;;5061899;28;20504;-74
2024/03/09 07:20:23;;;;;;;5.18;2.30;;;36.60;90.10;;;;;;5061297;28;21269;-65
2024/03/09 07:22:51;;;;;;;3.88;2.00;;;36.80;90.50;;;;;;5061428;28;20028;-63
2024/03/09 07:25:23;;;;;;;4.78;2.60;;;36.90;88.50;;;;;;5067201;28;20478;-77
2024/03/09 07:27:50;;;;;;;;;;;36.80;89.10;;;;;;5062427;28;20028;-63
2024/03/09 07:30:18;;;;;;;4.82;3.08;;;36.80;89.70;;;;;;5058989;28;19920;-70
2024/03/09 07:32:53;;;;;;;5.18;3.30;;;36.80;90.10;;;;;;5062698;28;20036;-64
2024/03/09 07:35:21;;;;;;;4.65;3.10;;;36.60;89.30;;;;;;5061898;28;20037;-65
2024/03/09 07:37:53;;;;;;;4.15;2.60;;;36.30;89.70;;;;;;5061032;28;20398;-64
2024/03/09 07:40:24;;;;;;;2.90;2.60;;;36.10;89.80;;;;;;5062197;28;20048;-68
2024/03/09 07:42:55;;;;;;;5.95;3.05;;;35.70;90.40;;;;;;5062828;28;20734;-64
2024/03/09 07:45:26;;;;;;;5.18;2.95;;;35.30;90.60;;;;;;5058430;28;20062;-69
2024/03/09 07:47:53;;;;;;;4.82;3.28;;;35.00;90.70;;;;;;5062807;28;20741;-66
2024/03/09 07:50:22;;;;;;;5.07;2.83;;;34.50;91.20;;;;;;5058601;28;20106;-66
2024/03/09 07:52:56;;;;;;;3.42;2.00;;;34.00;91.30;;;;;;5063402;28;20681;-69
2024/03/09 07:55:25;;;;;;;4.50;2.00;;;33.50;91.80;;;;;;5063723;28;20056;-69
2024/03/09 07:58:00;;;;;;;3.28;2.00;;;32.80;91.80;;;;;;5039832;28;20036;-68
2024/03/09 08:00:28;;;;;;;4.53;2.10;;;31.60;92.90;;;;;;5060339;28;20029;-69
2024/03/09 08:02:56;;;;;;;3.05;1.67;;;30.50;94.10;;;;;;5069320;28;20032;-69
2024/03/09 08:05:25;;;;;;;4.15;1.70;;;29.70;95.30;;;;;;5068980;28;20043;-64
2024/03/09 08:07:52;;;;;;;3.45;1.50;;;29.00;96.50;;;;;;5068578;28;20028;-69
2024/03/09 08:10:24;;;;;;;4.10;1.60;;;28.60;97.20;;;;;;5066048;28;20728;-64
2024/03/09 08:13:01;;;;;;;5.45;1.60;;;28.30;97.90;;;;;;5070351;28;20060;-64
2024/03/09 08:15:29;;;;;;;3.95;1.55;;;28.00;98.80;;;;;;5073282;28;20024;-64
2024/03/09 08:17:59;;;;;;;5.07;1.77;;;27.50;99.60;;;;;;5063313;28;20577;-72
2024/03/09 08:20:26;;;;;;;2.95;1.23;;;27.20;99.90;;;;;;5067038;28;20034;-63
2024/03/09 08:22:54;;;;;;;5.43;2.35;;;26.90;99.90;;;;;;5066787;28;20388;-66
2024/03/09 08:25:25;;;;;;;5.00;1.55;;;26.70;99.90;;;;;;5065861;28;20024;-73
2024/03/09 08:27:52;;;;;;;3.70;1.38;;;26.50;99.90;;;;;;5063245;28;20047;-74
2024/03/09 08:30:19;;;;;;;5.18;1.30;;;26.30;99.90;;;;;;5060556;28;20555;-63
2024/03/09 08:32:48;;;;;;;4.65;1.20;;;26.10;99.90;;;;;;5064161;28;20506;-65
2024/03/09 08:35:19;;;;;;;4.80;1.40;;;25.90;99.90;;;;;;5063961;28;20033;-75
2024/03/09 08:37:47;;;;;;;4.68;1.30;;;25.70;99.90;;;;;;5056564;28;20238;-70
2024/03/09 08:40:19;;;;;;;3.80;1.55;;;25.60;99.90;;;;;;5043518;28;20032;-65
2024/03/09 08:42:58;;;;;;;3.00;1.50;;;25.40;99.90;;;;;;5065930;28;20553;-69
2024/03/09 08:45:29;;;;;;;5.07;2.00;;;25.30;99.90;;;;;;5065573;28;20028;-75
2024/03/09 08:47:56;;;;;;;3.72;1.80;;;25.20;99.90;;;;;;5063851;28;20504;-65
2024/03/09 08:50:25;;;;;;;2.92;1.33;;;25.10;99.90;;;;;;5064692;28;20028;-72
2024/03/09 08:52:55;;;;;;;6.18;2.08;;;25.00;99.90;;;;;;5066198;28;20694;-74
2024/03/09 08:55:22;;;;;;;3.08;1.50;;;24.90;99.90;;;;;;5055837;28;20021;-63
2024/03/09 08:57:49;;;;;;;4.40;1.70;;;24.80;99.90;;;;;;5054273;28;20028;-75
2024/03/09 09:00:24;;;;;;;4.00;1.63;;;24.80;99.90;;;;;;5056818;28;20021;-71
2024/03/09 09:02:53;;;;;;;5.40;1.40;;;24.70;99.90;;;;;;5057523;28;20028;-62
2024/03/09 09:05:21;;;;;;;3.17;1.75;;;24.70;99.90;;;;;;5065191;28;20055;-74
2024/03/09 09:07:48;;;;;;;3.17;1.58;;;24.70;99.90;;;;;;5065057;28;20441;-62
2024/03/09 09:10:17;;;;;;;4.10;1.85;;;24.60;99.90;;;;;;5042232;28;20036;-62
2024/03/09 09:12:46;;;;;;;2.70;1.65;;;24.60;99.90;;;;;;5046960;28;20077;-73
2024/03/09 09:15:17;;;;;;;6.45;2.03;;;24.40;99.90;;;;;;5064467;28;20020;-74
2024/03/09 09:17:44;;;;;;;4.82;1.80;;;24.40;99.90;;;;;;5064096;28;20052;-70
2024/03/09 09:20:12;;;;;;;2.53;1.45;;;24.50;99.90;;;;;;5062447;28;20032;-62
2024/03/09 09:22:46;;;;;;;7.43;1.85;;;24.40;99.90;;;;;;5063394;28;20513;-71
2024/03/09 09:25:14;;;;;;;3.78;1.75;;;24.30;99.90;;;;;;5037466;28;20408;-73
2024/03/09 09:27:45;;;;;;;4.20;1.88;;;24.40;99.90;;;;;;5058408;28;20032;-74
2024/03/09 09:30:12;;;;;;;3.10;1.50;;;24.20;99.90;;;;;;5055834;28;20637;-72
2024/03/09 09:32:43;;;;;;;4.60;1.77;;;24.20;99.90;;;;;;5064401;28;21111;-71
2024/03/09 09:35:11;;;;;;;3.83;1.55;;;24.20;99.90;;;;;;5064418;22;20053;-63
2024/03/09 09:37:38;;;;;;;5.13;1.95;;;24.20;99.90;;;;;;5028553;28;20020;-61
2024/03/09 09:40:07;;;;;;;6.35;2.30;;;24.10;99.90;;;;;;5034235;28;20028;-62
2024/03/09 09:42:35;;;;;;;4.75;2.75;;;24.10;99.90;;;;;;5035019;28;20509;-72
2024/03/09 09:45:04;;;;;;;6.88;3.45;;;24.10;99.90;;;;;;5031703;28;20051;-73
2024/03/09 09:47:32;;;;;;;5.55;2.13;;;24.10;99.90;;;;;;5028071;28;20186;-72
2024/03/09 09:50:01;;;;;;;6.45;2.55;;;24.00;99.90;;;;;;5029170;28;20025;-62
2024/03/09 09:52:33;;;;;;;6.53;2.30;;;24.00;99.90;;;;;;5027324;28;20029;-71
2024/03/09 09:55:01;;;;;;;4.72;1.73;;;23.90;99.90;;;;;;5037308;28;20021;-73
2024/03/09 09:57:30;;;;;;;3.03;1.73;;;23.90;99.90;;;;;;5032442;28;20056;-61
2024/03/09 09:59:57;;;;;;;6.38;2.35;;;23.90;99.90;;;;;;5033699;28;20552;-61
2024/03/09 10:02:24;;;;;;;6.22;2.25;;;23.90;99.90;;;;;;5034745;28;20530;-62
2024/03/09 10:04:51;;;;;;;4.95;2.17;;;24.00;99.90;;;;;;5035307;28;20079;-74
2024/03/09 10:07:19;;;;;;;4.97;2.00;;;23.90;99.90;;;;;;4687852;28;10000370;-72
2024/03/09 10:09:47;;;;;;;5.35;2.60;;;23.80;99.90;;;;;;5029724;28;20052;-70
2024/03/09 10:12:23;;;;;;;5.57;3.25;;;23.70;99.90;;;;;;5030721;28;20576;-71
2024/03/09 10:14:51;;;;;;;7.72;5.78;;;23.60;99.90;;;;;;5030160;28;20148;-62
2024/03/09 10:17:22;;;;;;;12.32;8.25;;;23.60;99.90;;;;;;5033281;28;20180;-70
2024/03/09 10:19:52;;;;;;;11.77;9.88;;;23.50;99.90;;;;;;5028203;28;20429;-62
2024/03/09 10:22:20;;;;;;;7.95;6.57;;;23.50;99.90;;;;;;5033811;28;20016;-72
2024/03/09 10:24:55;;;;;;;8.63;5.30;;;23.50;99.90;;;;;;5033328;28;20061;-73
2024/03/09 10:27:26;;;;;;;7.47;3.83;;;23.50;99.90;;;;;;5033982;28;20039;-71
2024/03/09 10:30:12;;;;;;;8.85;5.03;;;23.50;99.90;;;;;;5031048;28;20622;-61
2024/03/09 10:32:43;;;;;;;6.03;3.35;;;23.50;99.90;;;;;;5026116;28;20113;-73
2024/03/09 10:35:11;;;;;;;4.32;2.90;;;23.40;99.90;;;;;;5028898;28;20045;-62
2024/03/09 10:37:42;;;;;;;5.03;2.50;;;23.50;99.90;;;;;;5030002;28;20090;-61
2024/03/09 10:40:12;;;;;;;7.20;2.40;;;23.50;99.90;;;;;;5029045;28;20596;-61
2024/03/09 10:42:49;;;;;;;5.78;2.75;;;23.50;99.90;;;;;;5033483;28;20024;-71
2024/03/09 10:45:19;;;;;;;5.80;2.42;;;23.50;99.90;;;;;;5034394;28;20635;-62
2024/03/09 10:47:54;;;;;;;5.55;2.58;;;23.40;99.90;;;;;;5034967;28;20558;-62
2024/03/09 10:50:26;;;;;;;5.53;2.50;;;23.40;99.90;;;;;;5032300;28;20413;-62
2024/03/09 10:53:08;;;;;;;8.27;3.38;;;23.50;99.90;;;;;;5034568;28;20058;-62
2024/03/09 10:55:55;;;;;;;4.75;2.33;;;23.60;99.90;;;;;;5033852;28;20495;-61
2024/03/09 10:58:27;;;;;;;4.82;2.40;;;23.60;99.90;;;;;;5034367;28;20037;-70
2024/03/09 11:00:56;;;;;;;4.68;2.17;;;23.50;99.90;;;;;;5033643;28;20025;-73
2024/03/09 11:03:26;;;;;;;5.00;2.35;;;23.50;99.90;;;;;;5034905;28;20032;-71
2024/03/09 11:05:55;;;;;;;5.30;2.30;;;23.40;99.90;;;;;;5034447;28;20037;-71
2024/03/09 11:08:23;;;;;;;3.97;2.20;;;23.30;99.90;;;;;;5034625;28;20636;-62
2024/03/09 11:10:51;;;;;;;5.32;2.28;;;23.40;99.90;;;;;;5034045;28;20055;-70
2024/03/09 11:13:19;;;;;;;5.55;2.28;;;23.50;99.90;;;;;;5033894;28;20261;-70
2024/03/09 11:15:55;;;;;;;6.07;2.92;;;23.40;99.90;;;;;;5034307;28;20295;-60
2024/03/09 11:18:22;;;;;;;6.28;3.03;;;23.40;99.90;;;;;;5035154;28;20550;-71
2024/03/09 11:20:59;;;;;;;5.82;2.55;;;23.40;99.90;;;;;;5031545;28;20032;-61
2024/03/09 11:23:30;;;;;;;5.60;3.25;;;23.30;99.90;;;;;;5038077;28;21125;-62
2024/03/09 11:25:59;;;;;;;6.25;3.10;;;23.30;99.90;;;;;;5040288;28;20048;-61
2024/03/09 11:28:33;;;;;;;6.97;3.30;;;23.20;99.90;;;;;;5040628;28;20072;-62
2024/03/09 11:31:16;;;;;;;8.90;3.17;;;23.10;99.90;;;;;;5039391;28;20033;-72
2024/03/09 11:33:59;;;;;;;5.38;2.58;;;23.10;99.90;;;;;;5038033;28;20121;-62
2024/03/09 11:36:52;;;;;;;13.20;9.60;;;23.00;99.90;;;;;;5021686;28;20025;-74
2024/03/09 11:39:28;;;;;;;7.35;3.33;;;22.80;99.90;;;;;;5038651;28;20043;-62
2024/03/09 11:41:57;;;;;;;7.88;3.20;;;22.90;99.90;;;;;;5036766;28;20824;-71
2024/03/09 11:44:38;;;;;;;7.43;3.38;;;22.80;99.90;;;;;;5039256;28;20025;-74
2024/03/09 11:47:06;;;;;;;8.25;3.05;;;22.80;99.90;;;;;;5018727;28;20422;-61
2024/03/09 11:49:35;;;;;;;6.80;2.63;;;22.90;99.90;;;;;;5038482;28;20028;-70
2024/03/09 11:52:11;;;;;;;5.65;2.65;;;22.90;99.90;;;;;;5036367;28;20075;-72
2024/03/09 11:54:39;;;;;;;5.80;2.97;;;22.80;99.90;;;;;;5037468;28;20020;-70
2024/03/09 11:57:09;;;;;;;5.22;2.38;;;22.80;99.90;;;;;;5039410;28;20049;-71
2024/03/09 11:59:36;;;;;;;6.07;2.53;;;22.90;99.90;;;;;;5037140;28;20035;-61
2024/03/09 12:02:06;;;;;;;5.95;2.63;;;22.70;99.90;;;;;;5037429;28;20078;-73
2024/03/09 12:04:33;;;;;;;6.28;2.47;;;22.50;99.90;;;;;;5038298;28;20036;-62
2024/03/09 12:07:01;;;;;;;7.90;2.50;;;22.30;99.90;;;;;;5036735;28;20219;-73
2024/03/09 12:09:31;;;;;;;8.75;3.00;;;22.20;99.90;;;;;;5039309;28;20563;-61
2024/03/09 12:11:59;;;;;;;11.80;3.00;;;22.20;99.90;;;;;;5040090;28;20367;-74
2024/03/09 12:14:26;;;;;;;6.57;3.22;;;22.20;99.90;;;;;;5041600;28;20025;-74
2024/03/09 12:16:53;;;;;;;7.07;3.47;;;22.20;99.90;;;;;;5041820;28;20071;-62
2024/03/09 12:19:21;;;;;;;10.20;3.47;;;22.20;99.90;;;;;;5042063;28;20040;-62
2024/03/09 12:21:48;;;;;;;7.32;3.38;;;22.10;99.90;;;;;;5041435;28;20029;-61
2024/03/09 12:24:17;;;;;;;5.70;3.08;;;22.00;99.90;;;;;;5040324;28;20025;-61
2024/03/09 12:26:44;;;;;;;5.90;2.92;;;21.90;99.90;;;;;;5025008;28;20036;-72
2024/03/09 12:29:12;;;;;;;6.97;3.22;;;21.80;99.90;;;;;;5040208;28;20039;-73
2024/03/09 12:31:39;;;;;;;9.73;3.80;;;21.80;99.90;;;;;;5041761;28;20066;-69
2024/03/09 12:34:08;;;;;;;7.50;3.03;;;21.70;99.90;;;;;;5038643;28;20040;-60
2024/03/09 12:36:36;;;;;;;7.28;3.22;;;21.70;99.90;;;;;;5043186;28;20093;-61
2024/03/09 12:39:17;;;;;;;9.25;4.45;;;21.70;99.90;;;;;;5024860;28;20025;-69
2024/03/09 12:41:53;;;;;;;10.68;6.63;;;21.70;99.90;;;;;;5042139;28;20033;-61
2024/03/09 12:44:21;;;;;;;6.78;4.70;;;21.60;99.90;;;;;;5040680;28;20487;-72
2024/03/09 12:46:48;;;;;;;6.75;3.50;;;21.60;99.90;;;;;;5041516;28;20083;-75
2024/03/09 12:49:15;;;;;;;6.47;3.40;;;21.50;99.90;;;;;;5040017;28;20060;-62
2024/03/09 12:51:50;;;;;;;10.57;3.72;;;21.40;99.90;;;;;;5041645;28;20032;-62
2024/03/09 12:54:17;;;;;;;6.20;2.90;;;21.40;99.90;;;;;;5040460;28;20398;-62
2024/03/09 12:56:47;;;;;;;7.20;3.65;;;21.30;99.90;;;;;;5040791;28;20033;-62
2024/03/09 12:59:26;;;;;;;5.43;3.38;;;21.30;99.90;;;;;;5039481;28;20017;-62